x

Monterey - 27nm Wnw Of Monterey, Ca (46042) Wave Buoy

10:50pm - Mon 21st Jan 2019 All times are PST. -8 hours from GMT.

  • Sig Wave height 8.9ft
  • Swell Direction
  • Peak Period 11s
  • Average Period 7s
  • Wind
    22mph, 27mph gusts
  • Sea Temp 56°f
  • Air Temp 55°f
  • Sea Pressure 1025.3mb
  • Monterey - 27nm Wnw Of Monterey, Ca
  • Monterey - 27nm Wnw Of Monterey, Ca

More Historic Weather Station data

Upgrade to MSW Pro to gain access to the past 30 days of data for over 8000 Wavebouys and Weather Stations around the globe.

Join

Comparision Forecast

View Surf forecast
   
Mon 01/21 10:50pm 9ft 11s 7s 22 27 mph 1025.3mb 56f 55f
9:50pm 10.5ft 11s 7s 22 29 mph 1025mb 56f 55f
8:50pm 9.5ft 11s 7s 22 27 mph 1025.1mb 56f 55f
7:50pm 10ft 11s 7s 22 27 mph 1025mb 56f 55f
6:50pm 10ft 11s 7s 25 29 mph 1024.7mb 56f 55f
5:50pm 11ft 11s 7s 27 31 mph 1024.6mb 56f 55f
4:50pm 11ft 11s 7s 25 31 mph 1023.9mb 56f 55f
3:50pm 10ft 11s 7s 22 29 mph 1023.5mb 56f 55f
2:50pm 10ft 11s 7s 22 27 mph 1023.3mb 56f 55f
1:50pm 10ft 11s 7s 22 27 mph 1023.3mb 56f 55f
12:50pm 10ft 11s 7s 20 25 mph 1023.7mb 56f 55f
11:50am 10ft 11s 7s 20 25 mph 1023.9mb 56f 55f
10:50am 9ft 11s 7s 20 27 mph 1023.7mb 56f 55f
9:50am 8.5ft 11s 7s 20 25 mph 1023.1mb 56f 55f
8:50am 10ft 10s 7s 20 25 mph 1022.5mb 56f 54f
7:50am 9.5ft 10s 7s 20 25 mph 1021.4mb 56f 55f
6:50am 9.5ft 9s 7s 18 20 mph 1021.1mb 56f 54f
5:50am 9ft 8s 6s 20 25 mph 1020.2mb 56f 54f
4:50am 9.5ft 8s 6s 20 27 mph 1019.9mb 56f 53f
3:50am 9.5ft 9s 6s 22 27 mph 1019.7mb 56f 55f
2:50am 10ft 11s 6s 22 27 mph 1019.5mb 56f 55f
1:50am 10ft 11s 6s 25 29 mph 1019mb 56f 54f
12:50am 11ft 11s 6s 25 29 mph 1018.8mb 56f 53f
Sun 01/20 11:50pm 9.5ft 11s 6s 25 31 mph 1018.6mb 56f 53f
10:50pm 8.5ft 11s 6s 29 34 mph 1017.9mb 56f 55f
9:50pm 8.5ft 11s 6s 29 36 mph 1017.5mb 56f 54f
8:50pm 8ft 11s 6s 25 29 mph 1017mb 56f 55f
7:50pm 8ft 12s 6s 16 20 mph 1017.1mb 56f 53f
6:50pm 8ft 11s 6s 25 31 mph 1017.1mb 56f 53f
5:50pm 7ft 12s 6s 25 29 mph 1016.5mb 56f 56f
4:50pm 7ft 12s 7s 20 25 mph 1016.6mb 56f 56f
3:50pm 7ft 12s 7s 20 22 mph 1016.8mb 57f 56f
2:50pm 7.5ft 11s 8s 16 20 mph 1017mb 57f 56f
1:50pm 7.5ft 11s 8s 11 13 mph 1017.2mb 57f 58f
12:50pm 8ft 12s 9s 13 16 mph 1017.9mb 57f 57f
11:50am 6.5ft 12s 8s 13 16 mph 1019.2mb 57f 58f
10:50am 7ft 12s 9s 13 16 mph 1020mb 57f 58f
9:50am 7ft 12s 9s 11 11 mph 1020mb 57f 57f
8:50am 7ft 13s 9s 9 11 mph 1020.1mb 57f 56f
7:50am 8ft 12s 10s 9 11 mph 1019.5mb 56f 56f
6:50am 8ft 11s 10s 7 9 mph 1020.2mb 57f 56f
5:50am 8ft 12s 9s 7 9 mph 1020.1mb 57f 56f
4:50am 8ft 12s 9s 7 9 mph 1020.2mb 57f 56f
3:50am 9ft 11s 10s  -  2 mph 1021.1mb 57f 56f
2:50am 9ft 12s 10s 2 2 mph 1021.3mb 57f 56f
1:50am 10ft 12s 10s 2 4 mph 1021.6mb 57f 56f
12:50am 9ft 12s 10s 7 9 mph 1021.9mb 57f 57f
Sat 01/19 11:50pm 8ft 13s 10s 7 9 mph 1022.2mb 57f 56f
10:50pm 6.5ft 12s 9s 2 4 mph 1022mb 57f 57f
9:50pm 9ft 12s 10s 4 4 mph 1022.2mb 57f 57f
8:50pm 9ft 13s 10s 4 7 mph 1021.9mb 57f 57f
7:50pm 7ft 14s 10s 4 7 mph 1022.3mb 57f 57f
6:50pm 7ft 13s 9s 7 9 mph 1022.7mb 57f 58f
5:50pm 8ft 12s 10s 9 9 mph 1023.2mb 57f 57f
4:50pm 6.5ft 11s 9s 7 9 mph 1023.4mb 57f 58f
3:50pm 8ft 13s 10s 9 9 mph 1024.1mb 57f 58f
2:50pm 8ft 14s 10s 7 9 mph 1024.4mb 57f 58f
1:50pm 7ft 15s 9s 7 9 mph 1024.7mb 57f 58f
12:50pm 7.5ft 11s 9s 4 7 mph 1025.8mb 57f 57f
11:50am 8.5ft 13s 9s 7 9 mph 1026.8mb 57f 57f
10:50am 7.5ft 12s 9s 7 9 mph 1027.6mb 57f 57f
9:50am 7.5ft 13s 9s 9 11 mph 1027.8mb 57f 57f
8:50am 8.5ft 11s 9s 9 13 mph 1027.5mb 56f 56f
7:50am 8ft 12s 9s 9 11 mph 1027.1mb 56f 56f
6:50am 8.5ft 11s 9s 13 16 mph 1026.8mb 56f 56f
5:50am 9ft 13s 10s 9 13 mph 1026.7mb 56f 56f
4:50am 8ft 12s 9s 9 11 mph 1027.4mb 56f 56f
3:50am 8.5ft 12s 10s 7 11 mph 1027.2mb 56f 56f
2:50am 9.5ft 13s 10s 9 11 mph 1027.3mb 56f 57f
1:50am 9ft 13s 10s 4 7 mph 1027.8mb 56f 56f
12:50am 8.5ft 13s 10s 4 7 mph 1028.1mb 56f 56f
Fri 01/18 11:50pm 8ft 14s 9s 4 9 mph 1028.3mb 57f 57f
10:50pm 10ft 13s 10s 4 7 mph 1028mb 57f 57f
9:50pm 9ft 12s 10s 4 7 mph 1027.2mb 57f 57f
8:50pm 9ft 13s 9s 4 7 mph 1027.2mb 57f 57f
7:50pm 11ft 14s 9s 2 4 mph 1026.9mb 57f 57f
6:50pm 10.5ft 15s 9s 4 7 mph 1026.7mb 57f 57f
5:50pm 12ft 14s 10s 2 7 mph 1026.4mb 57f 57f
4:50pm 11ft 15s 9s 4 9 mph 1026.3mb 57f 58f
3:50pm 12ft 14s 9s 2 4 mph 1025.7mb 57f 59f
2:50pm 12ft 14s 9s 2 7 mph 1025.4mb 57f 58f
1:50pm 13ft 14s 10s 4 7 mph 1025.3mb 57f 57f
12:50pm 14ft 14s 10s 4 9 mph 1025.6mb 57f 57f
11:50am 14ft 15s 10s 7 13 mph 1026.6mb 57f 56f
10:50am 14ft 15s 10s 9 13 mph 1026.9mb 56f 56f
9:50am 15ft 14s 10s 7 13 mph 1026.5mb 56f 56f
8:50am 15.5ft 14s 10s 4 9 mph 1026.2mb 56f 57f